Licenciado Manuel Crescencio Rejon Int Airport
MMMD : now visible

Airfield :











YOU CAN JOIN US ON...

 
LOGIN :

Register | Disclaimer

   EN    FR    IT 

 









Legend :    VFR   Marginal VFR   IFR   Intensive IFR   Very Intensive IFR
Visi :
Ceiling :
>= 8 km
>= 3000ft
5 to 8 km
1000 to 3000 ft
1500m to 5 km
500 to 1000 ft
800 to 1500m
200 to 500 ft
< 800m
< 200 ft
Symbols :   Thunderstorms  Fog  Heavy snow  Heavy precipitations  Wind > 20 kt






- Airport Elevation : 38 ft
- IATA code : MID


MMMD - Licenciado Manuel Crescencio Rejon Int

CURRENT METAR :
  • 301444Z 10009KT 7SM SCT007 BKN070 28/25 A2993 RMK SLP133 57004 956 8/570 HZY CI

EXPIRED METARs :
  • 301345Z 10006KT 7SM FEW006 BKN070 27/25 A2993 RMK 8/570 HZY CI
  • 301245Z 08005KT 7SM SCT030 BKN070 BKN300 26/24 A2994 RMK 8/578 HZY

TAF TAF MMMD
Valid from the 30 at 12:00 until the 31 at 18:00 UTC


301042Z 3012/3118 06005KT P6SM SCT020 BKN300 TX34/3019Z TN22/3012Z
TEMPO 3012/3014 BKN010
FM301600 13010KT P6SM BKN020 BKN080
TEMPO 3020/3024 3SM TSRA BKN015CB
FM310300 08005KT P6SM SCT020 BKN300
FM311500 08010KT P6SM BKN020
MMFR FIR / North America



MET'MAP, your aeronautical weather chart ! - Copyright ORBIFLY December 2007 - Disclaimer

ORBIFLY MET'MAP TEAM :

Programming & Development : Alexandra Zaïnal
Concept & original design : Baudouin d'Aumeries
Assistance for programming : Marc-Olivier Méhu
Technical & hardware support : Manuel Goepfert

Contact : metmap@orbifly.com




SOURCES & CREDITS :

   NOAA       Earth
Advisory